Latest Weather Observations for Mudgee

IDN60801

Issued at 8:32 am EDT Tuesday 17 January 2017 (issued every 30 minutes, with the page automatically refreshed every 10 minutes)

About weather observations | Map of weather stations | Latest weather observations for NSW | Other Formats
Station Details ID: 062101 Name: MUDGEE AIRPORT AWS Lat: -32.56 Lon: 149.61 Height: 471.0 m
Data from the previous 72 hours. | See also: Recent months at Mudgee
Date/Time
EDT
Temp
°C
App
Temp
°C
Dew
Point
°C
Rel
Hum
%
Delta-T
°C
Wind Press
QNH
hPa
Press
MSL
hPa
Rain since
9am
mm
Dir  Spd
km/h
Gust
km/h
Spd
kts
Gust
kts
17/08:30am 25.3 26.9 15.0 53 6.3 CALM 0 6 0 3 1017.5 1015.0 0.0
17/08:00am 24.2 24.1 14.0 53 6.1 SE 7 11 4 6 1017.5 1015.0 0.0
17/07:30am 22.1 22.4 14.5 62 4.6 S 6 9 3 5 1017.2 1014.7 0.0
17/07:00am 21.8 22.8 14.4 63 4.4 SSE 2 6 1 3 1016.8 1014.4 0.0
17/06:30am 20.1 21.4 14.2 69 3.5 CALM 0 0 0 0 1016.5 1014.0 0.0
17/06:00am 19.9 21.1 13.8 68 3.6 CALM 0 0 0 0 1016.2 1013.7 0.0
17/05:30am 19.7 20.8 13.4 67 3.7 CALM 0 0 0 0 1015.9 1013.4 0.0
17/05:00am 19.9 21.0 13.4 66 3.8 CALM 0 4 0 2 1015.4 1012.9 0.0
17/04:30am 20.8 21.9 13.5 63 4.3 CALM 0 0 0 0 1015.2 1012.7 0.0
17/04:00am 19.9 20.9 13.1 65 3.9 CALM 0 0 0 0 1015.0 1012.5 0.0
17/03:30am 20.9 20.4 12.8 60 4.7 SSE 7 11 4 6 1015.0 1012.5 0.0
17/03:00am 21.5 21.3 12.9 58 5.0 SSE 6 9 3 5 1015.3 1012.8 0.0
17/02:30am 21.2 22.1 12.9 59 4.8 CALM 0 6 0 3 1015.2 1012.7 0.0
17/02:00am 21.8 21.3 12.1 54 5.6 SE 6 7 3 4 1015.4 1012.9 0.0
17/01:30am 22.4 21.7 11.5 50 6.2 SSE 6 9 3 5 1015.4 1012.9 0.0
17/01:00am 23.2 23.2 11.3 47 6.8 ESE 2 7 1 4 1015.5 1013.0 0.0
17/12:30am 23.5 23.9 11.2 46 7.0 CALM 0 0 0 0 1015.6 1013.1 0.0
17/12:00am 24.4 23.2 10.3 41 8.0 SSE 7 9 4 5 1015.5 1013.0 0.0
 
Date/Time
EDT
Temp
°C
App
Temp
°C
Dew
Point
°C
Rel
Hum
%
Delta-T
°C
Wind Press
QNH
hPa
Press
MSL
hPa
Rain since
9am
mm
Dir  Spd
km/h
Gust
km/h
Spd
kts
Gust
kts
16/11:30pm 25.8 25.4 11.2 40 8.4 SSE 4 7 2 4 1015.7 1013.2 0.0
16/11:00pm 27.4 26.6 11.8 38 9.2 ESE 7 9 4 5 1015.8 1013.3 0.0
16/10:30pm 26.8 26.0 11.7 39 8.8 S 7 11 4 6 1015.6 1013.1 0.0
16/10:00pm 26.9 23.5 10.6 36 9.4 NE 19 24 10 13 1015.1 1012.6 0.0
16/09:30pm 25.9 23.6 10.5 38 8.8 NE 13 20 7 11 1014.6 1012.1 0.0
16/09:00pm 25.6 23.4 9.4 36 9.1 NE 11 15 6 8 1014.3 1011.8 0.0
16/08:30pm 30.4 28.8 8.7 26 12.3 NNE 7 7 4 4 1014.2 1011.7 0.0
16/08:00pm 33.1 32.0 7.1 20 14.5 N 2 6 1 3 1013.8 1011.3 0.0
16/07:30pm 33.6 32.3 7.6 20 14.7 N 4 7 2 4 1013.6 1011.1 0.0
16/07:00pm 34.3 32.5 8.1 20 15.0 N 7 15 4 8 1013.4 1010.9 0.0
16/06:30pm 35.3 33.6 8.2 19 15.6 ESE 7 13 4 7 1013.1 1010.6 0.0
16/06:00pm 34.7 32.7 6.9 18 15.6 SE 7 15 4 8 1012.9 1010.3 0.0
16/05:30pm 34.5 32.2 5.9 17 15.8 SE 7 13 4 7 1013.0 1010.4 0.0
16/05:00pm 35.0 32.6 7.1 18 15.7 NNE 9 20 5 11 1013.1 1010.6 0.0
16/04:30pm 34.9 32.5 8.6 20 15.2 WNW 11 19 6 10 1013.3 1010.8 0.0
16/04:00pm 33.9 30.6 6.3 18 15.3 NNW 13 20 7 11 1013.7 1011.2 0.0
16/03:30pm 34.0 30.9 5.5 17 15.6 NW 11 17 6 9 1013.8 1011.3 0.0
16/03:00pm 33.7 31.3 6.9 19 15.0 WSW 9 15 5 8 1014.0 1011.5 0.0
16/02:30pm 33.1 31.2 9.2 23 13.8 NNW 9 13 5 7 1014.5 1012.0 0.0
16/02:00pm 32.5 29.8 10.5 26 12.9 WNW 15 24 8 13 1014.9 1012.3 0.0
16/01:30pm 32.4 31.5 12.6 30 12.0 S 9 13 5 7 1015.3 1012.8 0.0
16/01:00pm 31.3 30.9 13.1 33 11.1 SW 7 11 4 6 1015.8 1013.3 0.0
16/12:30pm 30.0 29.3 13.3 36 10.1 NE 9 19 5 10 1016.3 1013.8 0.0
16/12:00pm 28.7 27.4 12.6 37 9.6 NNE 11 20 6 11 1016.7 1014.2 0.0
16/11:30am 27.4 27.2 14.8 46 7.8 ESE 9 13 5 7 1017.0 1014.6 0.0
16/11:00am 26.7 26.5 14.8 48 7.3 NNE 9 15 5 8 1017.5 1015.0 0.0
16/10:30am 25.7 25.8 15.4 53 6.4 N 9 17 5 9 1017.7 1015.2 0.0
16/10:00am 25.3 24.1 15.0 53 6.3 NE 15 20 8 11 1017.8 1015.3 0.0
16/09:30am 24.0 22.9 15.2 58 5.4 ENE 15 22 8 12 1018.0 1015.5 0.0
16/09:00am 22.6 21.3 14.7 61 4.8 E 15 20 8 11 1018.2 1015.7 0.0
16/08:30am 22.1 21.3 15.0 64 4.3 SE 13 20 7 11 1018.1 1015.6 0.0
16/08:00am 20.6 18.8 14.5 68 3.6 SSE 17 22 9 12 1018.0 1015.5 0.0
16/07:30am 19.5 18.9 14.7 74 2.9 SSE 11 15 6 8 1017.9 1015.4 0.0
16/07:00am 18.2 18.0 14.7 80 2.1 SSE 9 15 5 8 1017.7 1015.2 0.0
16/06:30am 16.4 16.2 12.9 80 2.0 N 6 9 3 5 1017.5 1015.0 0.0
16/06:00am 17.9 16.8 14.4 80 2.1 SE 13 19 7 10 1017.0 1014.6 0.0
16/05:30am 16.6 16.6 14.1 85 1.5 ENE 7 11 4 6 1017.0 1014.6 0.0
16/05:00am 17.3 17.7 13.8 80 2.0 E 4 7 2 4 1016.7 1014.2 0.0
16/04:30am 18.0 19.1 13.5 75 2.6 CALM 0 0 0 0 1016.5 1014.0 0.0
16/04:00am 18.6 19.4 13.7 73 2.9 SSE 2 7 1 4 1016.2 1013.7 0.0
16/03:30am 19.2 19.1 14.0 72 3.1 SE 7 11 4 6 1016.3 1013.8 0.0
16/03:00am 19.5 19.1 14.1 71 3.2 SSE 9 13 5 7 1016.6 1014.1 0.0
16/02:30am 19.8 19.5 14.4 71 3.2 SE 9 13 5 7 1016.7 1014.2 0.0
16/02:00am 20.4 19.0 14.5 69 3.5 SE 15 24 8 13 1016.8 1014.4 0.0
16/01:30am 20.2 19.7 14.8 71 3.2 ESE 11 19 6 10 1016.9 1014.5 0.0
16/01:00am 20.0 19.8 14.6 71 3.2 SE 9 13 5 7 1017.2 1014.7 0.0
16/12:30am 20.7 19.8 14.8 69 3.5 ESE 13 19 7 10 1017.0 1014.6 0.0
16/12:00am 21.0 20.5 14.9 68 3.7 ESE 11 17 6 9 1017.0 1014.6 0.0
 
Date/Time
EDT
Temp
°C
App
Temp
°C
Dew
Point
°C
Rel
Hum
%
Delta-T
°C
Wind Press
QNH
hPa
Press
MSL
hPa
Rain since
9am
mm
Dir  Spd
km/h
Gust
km/h
Spd
kts
Gust
kts
15/11:30pm 21.3 20.8 14.9 67 3.9 E 11 15 6 8 1016.8 1014.4 0.0
15/11:00pm 21.7 21.7 15.1 66 4.0 E 9 13 5 7 1016.6 1014.1 0.0
15/10:30pm 22.1 22.0 15.0 64 4.3 ESE 9 13 5 7 1016.4 1013.9 0.0
15/10:00pm 22.8 22.4 15.1 62 4.7 E 11 19 6 10 1016.0 1013.5 0.0
15/09:30pm 22.9 22.1 15.2 62 4.7 ENE 13 19 7 10 1015.6 1013.1 0.0
15/09:00pm 23.3 23.3 15.1 60 5.0 ENE 9 15 5 8 1015.3 1012.8 0.0
15/08:30pm 24.3 22.3 15.0 56 5.7 ENE 19 26 10 14 1014.9 1012.3 0.0
15/08:00pm 25.0 23.5 15.3 55 6.0 ENE 17 26 9 14 1014.3 1011.8 0.0
15/07:30pm 26.5 24.4 15.2 49 7.0 ENE 20 28 11 15 1013.9 1011.4 0.0
15/07:00pm 27.0 23.8 15.4 49 7.2 NE 26 32 14 17 1013.3 1010.8 0.0
15/06:30pm 28.7 26.1 14.9 43 8.5 ENE 22 37 12 20 1013.1 1010.6 0.0
15/06:00pm 28.9 27.0 15.1 43 8.6 ENE 19 26 10 14 1012.9 1010.3 0.0
15/05:30pm 29.3 26.9 13.9 39 9.4 E 19 30 10 16 1013.0 1010.4 0.0
15/05:00pm 30.3 27.9 16.3 42 8.9 NE 24 37 13 20 1013.1 1010.6 0.0
15/04:30pm 30.1 28.7 13.4 36 10.2 ESE 13 26 7 14 1013.4 1010.9 0.0
15/04:00pm 29.9 27.7 14.4 38 9.6 ENE 19 28 10 15 1013.5 1011.0 0.0
15/03:30pm 29.6 27.3 14.6 40 9.3 ENE 20 28 11 15 1013.8 1011.3 0.0
15/03:00pm 28.7 26.3 14.5 42 8.7 ENE 20 30 11 16 1014.0 1011.5 0.0
15/02:30pm 27.5 25.4 14.8 45 7.8 E 19 30 10 16 1014.2 1011.7 0.0
15/02:00pm 28.0 25.9 15.3 46 7.9 E 20 37 11 20 1014.4 1011.9 0.0
15/01:30pm 28.1 24.9 15.4 46 7.9 NE 26 39 14 21 1014.2 1011.7 0.0
15/01:00pm 28.1 26.0 16.1 48 7.6 NE 22 32 12 17 1014.5 1012.0 0.0
15/12:30pm 27.1 25.2 15.8 50 7.1 NE 20 32 11 17 1014.7 1012.2 0.0
15/12:00pm 28.0 25.8 16.0 48 7.5 ENE 22 32 12 17 1014.6 1012.1 0.0
15/11:30am 26.7 24.0 15.7 51 6.8 NE 24 32 13 17 1014.7 1012.2 0.0
15/11:00am 26.4 24.9 15.4 50 6.8 ENE 17 28 9 15 1014.7 1012.2 0.0
15/10:30am 26.9 26.4 16.8 54 6.4 E 15 22 8 12 1014.6 1012.1 0.0
15/10:00am 24.9 24.4 15.8 57 5.6 ESE 13 24 7 13 1014.7 1012.2 0.0
15/09:30am 24.8 24.3 16.0 58 5.5 ESE 13 20 7 11 1014.7 1012.2 0.0
15/09:00am 24.4 24.0 16.1 60 5.2 ESE 13 20 7 11 1014.6 1012.1 0.0
15/08:30am 23.5 22.6 15.8 62 4.7 SE 15 20 8 11 1014.7 1012.2 0.0
15/08:00am 22.4 21.8 15.7 66 4.1 SE 13 22 7 12 1014.2 1011.7 0.0
15/07:30am 20.1 19.7 14.0 68 3.6 SW 9 11 5 6 1013.9 1011.4 0.0
15/07:00am 18.7 18.3 12.9 69 3.3 SSW 7 9 4 5 1013.8 1011.3 0.0
15/06:30am 17.6 17.9 10.9 65 3.7 CALM 0 0 0 0 1013.5 1011.0 0.0
15/06:00am 17.2 17.0 9.1 59 4.3 CALM 0 0 0 0 1013.1 1010.6 0.0
15/05:30am 17.1 15.6 8.5 57 4.5 SE 6 9 3 5 1012.8 1010.2 0.0
15/05:00am 17.6 15.3 7.6 52 5.2 S 9 9 5 5 1012.1 1009.6 0.0
15/04:30am 17.4 15.4 7.2 51 5.2 S 7 9 4 5 1012.0 1009.5 0.0
15/04:00am 16.4 15.7 7.1 54 4.7 CALM 0 0 0 0 1012.0 1009.5 0.0
15/03:30am 16.1 14.9 6.5 53 4.8 NE 2 7 1 4 1012.1 1009.6 0.0
15/03:00am 17.4 16.4 5.7 46 5.8 CALM 0 0 0 0 1012.1 1009.6 0.0
15/02:30am 19.9 17.7 5.5 39 7.3 E 6 9 3 5 1012.2 1009.7 0.0
15/02:00am 20.8 17.6 5.2 36 7.9 S 11 17 6 9 1012.3 1009.8 0.0
15/01:30am 20.6 18.6 6.2 39 7.4 SE 6 13 3 7 1012.5 1010.0 0.0
15/01:00am 19.6 16.4 5.3 39 7.2 S 11 13 6 7 1012.5 1010.0 0.0
15/12:30am 21.1 17.6 5.5 36 7.9 S 13 17 7 9 1012.5 1010.0 0.0
15/12:00am 22.5 18.0 5.9 34 8.6 S 19 24 10 13 1012.2 1009.7 0.0
 
Date/Time
EDT
Temp
°C
App
Temp
°C
Dew
Point
°C
Rel
Hum
%
Delta-T
°C
Wind Press
QNH
hPa
Press
MSL
hPa
Rain since
9am
mm
Dir  Spd
km/h
Gust
km/h
Spd
kts
Gust
kts
14/11:30pm 22.6 18.6 5.1 32 8.9 S 15 19 8 10 1011.9 1009.4 0.0
14/11:00pm 23.3 20.8 4.8 30 9.4 SE 7 11 4 6 1011.9 1009.4 0.0
14/10:30pm 22.9 20.3 4.4 30 9.3 SE 7 9 4 5 1011.7 1009.2 0.0
14/10:00pm 23.6 21.0 4.0 28 9.9 SE 7 9 4 5 1011.2 1008.7 0.0
14/09:30pm 25.3 21.5 3.9 25 10.9 S 13 20 7 11 1010.6 1008.0 0.0
14/09:00pm 26.5 21.8 3.1 22 11.8 SSW 17 20 9 11 1010.0 1007.5 0.0
14/08:30pm 27.2 23.1 2.3 20 12.4 SSW 13 19 7 10 1009.3 1006.8 0.0
14/08:00pm 28.7 23.9 0.4 16 13.8 SW 15 24 8 13 1008.6 1006.0 0.0
14/07:30pm 30.7 24.4 -0.8 13 15.2 SSW 22 35 12 19 1007.8 1005.3 0.0
14/07:00pm 31.5 25.1 0.8 14 15.4 SW 24 33 13 18 1007.4 1004.9 0.0
14/06:30pm 32.2 24.1 1.3 14 15.6 SW 33 43 18 23 1006.9 1004.3 0.0
14/06:00pm 33.3 26.7 4.1 16 15.6 SW 28 39 15 21 1006.5 1003.9 0.0
14/05:55pm 33.1 26.4 5.6 18 15.0 SW 30 48 16 26 1006.6 1004.0 0.0
14/05:30pm 34.6 29.3 9.8 22 14.6 WSW 28 41 15 22 1006.3 1003.7 0.0
14/05:00pm 34.3 26.7 5.8 17 15.7 WSW 35 46 19 25 1006.5 1003.9 0.0
14/04:30pm 34.8 27.8 7.0 18 15.6 WSW 33 44 18 24 1006.8 1004.2 0.0
14/04:00pm 34.2 29.7 10.1 23 14.2 WSW 24 35 13 19 1007.1 1004.5 0.0
14/03:30pm 33.7 30.4 12.7 28 12.8 W 22 33 12 18 1007.4 1004.9 0.0
14/03:00pm 32.5 30.0 15.1 35 11.0 SW 22 37 12 20 1007.7 1005.2 0.0
14/02:30pm 31.5 29.6 16.6 40 9.6 W 22 33 12 18 1007.8 1005.3 0.0
14/02:00pm 30.7 29.3 18.8 49 7.9 W 24 35 13 19 1008.0 1005.5 0.0
14/01:30pm 31.0 29.8 18.4 47 8.3 W 22 30 12 16 1008.3 1005.7 0.0
14/01:00pm 31.4 29.2 18.7 46 8.4 W 28 35 15 19 1008.3 1005.7 0.0
14/12:30pm 31.4 29.8 18.4 46 8.5 W 24 35 13 19 1008.4 1005.8 0.0
14/12:00pm 31.0 30.4 18.4 47 8.3 WNW 19 32 10 17 1008.4 1005.8 0.0
14/11:30am 30.4 29.8 18.5 49 7.8 W 19 30 10 16 1008.4 1005.8 0.0
14/11:00am 29.0 29.3 18.7 53 6.8 WNW 15 26 8 14 1008.3 1005.7 0.0
14/10:30am 27.7 26.9 18.4 57 6.0 W 20 26 11 14 1008.5 1005.9 0.0
14/10:00am 27.5 27.0 17.9 55 6.2 W 17 22 9 12 1008.3 1005.7 0.0
14/09:30am 27.7 27.5 17.5 53 6.5 WSW 15 20 8 11 1008.0 1005.5 0.0
14/09:00am 28.1 27.0 17.3 52 6.9 W 19 26 10 14 1008.5 1005.9 0.0

Other Formats:

Comma delimited format used in spreadsheet applications
http://www.bom.gov.au/fwo/IDN60801/IDN60801.94727.axf

JavaScript Object Notation format (JSON) in row-major order
http://www.bom.gov.au/fwo/IDN60801/IDN60801.94727.json